Time,TemperatureF,DewpointF,PressureIn,WindDirection,WindDirectionDegrees,WindSpeedMPH,WindSpeedGustMPH,Humidity,HourlyPrecipIn,Conditions,Clouds,dailyrainin,SoftwareType,DateUTC
2013-02-05 00:10:00,46.1,41.0,30.14,West,259,0.0,1.0,81,0.00,,,0.00,weatherlink.com 1.10,2013-02-05 08:10:00,
2013-02-05 00:25:00,45.9,40.0,30.14,West,259,0.0,1.0,81,0.00,,,0.00,weatherlink.com 1.10,2013-02-05 08:25:00,
2013-02-05 00:40:00,45.9,40.0,30.14,WSW,258,0.0,0.0,80,0.00,,,0.00,weatherlink.com 1.10,2013-02-05 08:40:00,
2013-02-05 00:55:00,47.2,41.0,30.14,East,99,1.0,1.0,80,0.00,,,0.00,weatherlink.com 1.10,2013-02-05 08:55:00,
2013-02-05 01:10:00,48.0,41.0,30.14,ESE,121,0.0,1.0,78,0.00,,,0.00,weatherlink.com 1.10,2013-02-05 09:10:00,
2013-02-05 01:25:00,47.8,42.0,30.14,ESE,122,0.0,0.0,79,0.00,,,0.00,weatherlink.com 1.10,2013-02-05 09:25:00,
2013-02-05 01:40:00,46.1,40.0,30.14,ESE,121,0.0,0.0,80,0.00,,,0.00,weatherlink.com 1.10,2013-02-05 09:40:00,
2013-02-05 01:55:00,44.5,39.0,30.14,ESE,121,0.0,0.0,82,0.00,,,0.00,weatherlink.com 1.10,2013-02-05 09:55:00,
2013-02-05 02:10:00,44.5,39.0,30.14,SW,232,0.0,1.0,81,0.00,,,0.00,weatherlink.com 1.10,2013-02-05 10:10:00,
2013-02-05 02:25:00,44.6,39.0,30.14,SW,233,0.0,0.0,81,0.00,,,0.00,weatherlink.com 1.10,2013-02-05 10:25:00,
2013-02-05 02:40:00,43.8,39.0,30.14,SW,233,0.0,0.0,82,0.00,,,0.00,weatherlink.com 1.10,2013-02-05 10:40:00,
2013-02-05 02:55:00,43.9,38.0,30.13,SW,233,0.0,0.0,80,0.00,,,0.00,weatherlink.com 1.10,2013-02-05 10:55:00,
2013-02-05 03:10:00,43.7,39.0,30.13,SW,233,0.0,0.0,82,0.00,,,0.00,weatherlink.com 1.10,2013-02-05 11:10:00,
2013-02-05 03:25:00,43.5,37.0,30.13,SE,135,0.0,0.0,79,0.00,,,0.00,weatherlink.com 1.10,2013-02-05 11:25:00,
2013-02-05 03:40:00,43.3,37.0,30.12,SE,136,0.0,0.0,78,0.00,,,0.00,weatherlink.com 1.10,2013-02-05 11:40:00,
2013-02-05 03:55:00,43.5,37.0,30.13,SE,134,0.0,1.0,78,0.00,,,0.00,weatherlink.com 1.10,2013-02-05 11:55:00,
2013-02-05 04:10:00,42.4,37.0,30.12,SE,134,0.0,0.0,80,0.00,,,0.00,weatherlink.com 1.10,2013-02-05 12:10:00,
2013-02-05 04:25:00,42.7,37.0,30.12,SE,134,0.0,0.0,80,0.00,,,0.00,weatherlink.com 1.10,2013-02-05 12:25:00,
2013-02-05 04:40:00,44.1,38.0,30.11,ESE,105,0.0,2.0,78,0.00,,,0.00,weatherlink.com 1.10,2013-02-05 12:40:00,
2013-02-05 04:55:00,44.4,37.0,30.11,East,96,0.0,1.0,76,0.00,,,0.00,weatherlink.com 1.10,2013-02-05 12:55:00,
2013-02-05 05:10:00,42.5,36.0,30.11,South,181,0.0,1.0,79,0.00,,,0.00,weatherlink.com 1.10,2013-02-05 13:10:00,
2013-02-05 05:25:00,42.8,35.0,30.10,ESE,108,0.0,1.0,75,0.00,,,0.00,weatherlink.com 1.10,2013-02-05 13:25:00,
2013-02-05 05:40:00,42.8,35.0,30.10,ESE,108,0.0,0.0,75,0.00,,,0.00,weatherlink.com 1.10,2013-02-05 13:40:00,
2013-02-05 05:55:00,42.0,35.0,30.10,ESE,109,0.0,0.0,75,0.00,,,0.00,weatherlink.com 1.10,2013-02-05 13:55:00,
2013-02-05 06:10:00,42.7,34.0,30.10,ESE,108,0.0,1.0,72,0.00,,,0.00,weatherlink.com 1.10,2013-02-05 14:10:00,
2013-02-05 06:25:00,42.2,34.0,30.11,ESE,110,0.0,0.0,73,0.00,,,0.00,weatherlink.com 1.10,2013-02-05 14:25:00,
2013-02-05 06:40:00,41.5,34.0,30.11,ESE,110,0.0,1.0,75,0.00,,,0.00,weatherlink.com 1.10,2013-02-05 14:40:00,
2013-02-05 06:55:00,41.1,34.0,30.11,SW,219,0.0,1.0,76,0.00,,,0.00,weatherlink.com 1.10,2013-02-05 14:55:00,
2013-02-05 07:10:00,41.3,35.0,30.12,SW,219,0.0,0.0,77,0.00,,,0.00,weatherlink.com 1.10,2013-02-05 15:10:00,
2013-02-05 07:26:00,40.4,34.0,30.12,SW,219,0.0,0.0,79,0.00,,,0.00,weatherlink.com 1.10,2013-02-05 15:26:00,
2013-02-05 07:41:00,40.2,34.0,30.13,SW,219,0.0,0.0,79,0.00,,,0.00,weatherlink.com 1.10,2013-02-05 15:41:00,
2013-02-05 07:56:00,41.2,35.0,30.13,SW,219,0.0,0.0,78,0.00,,,0.00,weatherlink.com 1.10,2013-02-05 15:56:00,
2013-02-05 08:11:00,42.9,36.0,30.13,SW,219,0.0,0.0,76,0.00,,,0.00,weatherlink.com 1.10,2013-02-05 16:11:00,
2013-02-05 08:26:00,44.6,37.0,30.14,SW,219,0.0,0.0,76,0.00,,,0.00,weatherlink.com 1.10,2013-02-05 16:26:00,
2013-02-05 08:41:00,45.7,38.0,30.14,SSE,158,0.0,1.0,75,0.00,,,0.00,weatherlink.com 1.10,2013-02-05 16:41:00,
2013-02-05 08:56:00,47.6,38.0,30.14,East,80,0.0,2.0,69,0.00,,,0.00,weatherlink.com 1.10,2013-02-05 16:56:00,
2013-02-05 09:11:00,48.5,39.0,30.14,ESE,105,0.0,1.0,71,0.00,,,0.00,weatherlink.com 1.10,2013-02-05 17:11:00,
2013-02-05 09:26:00,50.6,41.0,30.13,NNW,347,0.0,0.0,70,0.00,,,0.00,weatherlink.com 1.10,2013-02-05 17:26:00,
2013-02-05 09:41:00,52.5,43.0,30.14,SW,236,1.0,2.0,69,0.00,,,0.00,weatherlink.com 1.10,2013-02-05 17:41:00,
2013-02-05 09:56:00,53.1,43.0,30.14,West,266,1.0,3.0,69,0.00,,,0.00,weatherlink.com 1.10,2013-02-05 17:56:00,
2013-02-05 10:11:00,52.9,40.0,30.14,NE,46,2.0,3.0,62,0.00,,,0.00,weatherlink.com 1.10,2013-02-05 18:11:00,
2013-02-05 10:26:00,50.0,40.0,30.14,ESE,107,0.0,2.0,68,0.00,,,0.00,weatherlink.com 1.10,2013-02-05 18:26:00,
2013-02-05 10:41:00,51.6,40.0,30.14,ENE,67,1.0,2.0,66,0.00,,,0.00,weatherlink.com 1.10,2013-02-05 18:41:00,
2013-02-05 10:56:00,51.7,41.0,30.15,ENE,70,1.0,3.0,67,0.00,,,0.00,weatherlink.com 1.10,2013-02-05 18:56:00,
2013-02-05 11:11:00,51.7,41.0,30.14,ENE,77,0.0,2.0,68,0.00,,,0.00,weatherlink.com 1.10,2013-02-05 19:11:00,
2013-02-05 11:26:00,51.4,42.0,30.14,East,82,2.0,2.0,71,0.00,,,0.00,weatherlink.com 1.10,2013-02-05 19:26:00,
2013-02-05 11:41:00,52.6,43.0,30.13,SW,236,2.0,4.0,69,0.00,,,0.00,weatherlink.com 1.10,2013-02-05 19:41:00,
2013-02-05 11:56:00,53.8,43.0,30.12,NE,51,0.0,2.0,68,0.00,,,0.00,weatherlink.com 1.10,2013-02-05 19:56:00,
2013-02-05 12:11:00,53.8,44.0,30.12,ENE,58,0.0,3.0,69,0.00,,,0.00,weatherlink.com 1.10,2013-02-05 20:11:00,
2013-02-05 12:26:00,53.9,44.0,30.11,WSW,249,1.0,3.0,70,0.00,,,0.00,weatherlink.com 1.10,2013-02-05 20:26:00,
2013-02-05 12:41:00,53.1,44.0,30.11,WSW,253,2.0,5.0,70,0.00,,,0.00,weatherlink.com 1.10,2013-02-05 20:41:00,
2013-02-05 12:56:00,52.8,44.0,30.11,West,265,3.0,6.0,71,0.00,,,0.00,weatherlink.com 1.10,2013-02-05 20:56:00,
2013-02-05 13:11:00,52.8,44.0,30.10,WSW,255,4.0,5.0,73,0.00,,,0.00,weatherlink.com 1.10,2013-02-05 21:11:00,
2013-02-05 13:26:00,52.9,44.0,30.09,SW,221,3.0,5.0,72,0.00,,,0.00,weatherlink.com 1.10,2013-02-05 21:26:00,
2013-02-05 13:41:00,53.2,45.0,30.09,WSW,245,1.0,5.0,74,0.00,,,0.00,weatherlink.com 1.10,2013-02-05 21:41:00,
2013-02-05 13:56:00,53.6,45.0,30.09,SW,225,3.0,7.0,72,0.00,,,0.00,weatherlink.com 1.10,2013-02-05 21:56:00,
2013-02-05 14:11:00,53.8,45.0,30.09,WSW,250,4.0,7.0,73,0.00,,,0.00,weatherlink.com 1.10,2013-02-05 22:11:00,
2013-02-05 14:26:00,52.7,46.0,30.09,WSW,245,4.0,7.0,77,0.00,,,0.00,weatherlink.com 1.10,2013-02-05 22:26:00,
2013-02-05 14:41:00,52.2,46.0,30.09,WSW,249,0.0,6.0,78,0.00,,,0.00,weatherlink.com 1.10,2013-02-05 22:41:00,
2013-02-05 14:56:00,49.7,44.0,30.10,WSW,252,3.0,8.0,82,0.00,,,0.00,weatherlink.com 1.10,2013-02-05 22:56:00,
2013-02-05 15:11:00,48.7,44.0,30.10,WSW,238,4.0,6.0,84,0.00,,,0.00,weatherlink.com 1.10,2013-02-05 23:11:00,
2013-02-05 15:26:00,48.3,44.0,30.10,WSW,257,2.0,8.0,86,0.00,,,0.00,weatherlink.com 1.10,2013-02-05 23:26:00,
2013-02-05 15:41:00,48.1,44.0,30.11,WSW,249,1.0,6.0,86,0.00,,,0.00,weatherlink.com 1.10,2013-02-05 23:41:00,
2013-02-05 15:56:00,48.0,44.0,30.11,SSW,195,0.0,3.0,86,0.00,,,0.00,weatherlink.com 1.10,2013-02-05 23:56:00,
2013-02-05 16:11:00,47.2,44.0,30.11,West,260,3.0,6.0,87,0.00,,,0.00,weatherlink.com 1.10,2013-02-06 00:11:00,
2013-02-05 16:26:00,46.8,44.0,30.12,WSW,242,1.0,7.0,88,0.00,,,0.00,weatherlink.com 1.10,2013-02-06 00:26:00,
2013-02-05 16:41:00,46.3,43.0,30.12,West,278,3.0,6.0,89,0.00,,,0.00,weatherlink.com 1.10,2013-02-06 00:41:00,
2013-02-05 16:56:00,46.2,43.0,30.12,WSW,257,1.0,2.0,89,0.00,,,0.00,weatherlink.com 1.10,2013-02-06 00:56:00,
2013-02-05 17:11:00,45.9,43.0,30.13,SW,224,3.0,4.0,88,0.00,,,0.00,weatherlink.com 1.10,2013-02-06 01:11:00,
2013-02-05 17:26:00,45.2,42.0,30.14,ENE,64,0.0,5.0,87,0.00,,,0.00,weatherlink.com 1.10,2013-02-06 01:26:00,
2013-02-05 17:41:00,44.8,41.0,30.14,NW,320,0.0,3.0,87,0.00,,,0.00,weatherlink.com 1.10,2013-02-06 01:41:00,
2013-02-05 17:56:00,44.0,40.0,30.14,ESE,113,0.0,3.0,86,0.00,,,0.00,weatherlink.com 1.10,2013-02-06 01:56:00,
2013-02-05 18:11:00,43.5,40.0,30.13,West,267,1.0,3.0,87,0.00,,,0.00,weatherlink.com 1.10,2013-02-06 02:11:00,
2013-02-05 18:26:00,43.0,40.0,30.14,West,278,1.0,2.0,88,0.00,,,0.00,weatherlink.com 1.10,2013-02-06 02:26:00,
2013-02-05 18:41:00,42.4,39.0,30.14,SSW,204,1.0,1.0,89,0.00,,,0.00,weatherlink.com 1.10,2013-02-06 02:41:00,
2013-02-05 18:56:00,42.3,39.0,30.15,West,259,0.0,1.0,89,0.00,,,0.00,weatherlink.com 1.10,2013-02-06 02:56:00,
2013-02-05 19:11:00,42.0,39.0,30.15,WNW,287,0.0,3.0,90,0.00,,,0.00,weatherlink.com 1.10,2013-02-06 03:11:00,
2013-02-05 19:26:00,42.1,39.0,30.16,West,274,0.0,1.0,90,0.00,,,0.00,weatherlink.com 1.10,2013-02-06 03:26:00,
2013-02-05 19:41:00,41.7,39.0,30.16,WSW,250,0.0,0.0,91,0.00,,,0.00,weatherlink.com 1.10,2013-02-06 03:41:00,
2013-02-05 19:56:00,41.5,39.0,30.16,SW,226,0.0,0.0,92,0.00,,,0.00,weatherlink.com 1.10,2013-02-06 03:56:00,
2013-02-05 20:11:00,41.5,39.0,30.16,WSW,252,0.0,0.0,92,0.00,,,0.00,weatherlink.com 1.10,2013-02-06 04:11:00,
2013-02-05 20:26:00,41.7,40.0,30.16,ESE,122,0.0,0.0,93,0.00,,,0.00,weatherlink.com 1.10,2013-02-06 04:26:00,
2013-02-05 20:41:00,41.6,40.0,30.17,East,101,0.0,0.0,92,0.00,,,0.00,weatherlink.com 1.10,2013-02-06 04:41:00,
2013-02-05 20:57:00,41.6,40.0,30.17,ESE,103,0.0,0.0,93,0.00,,,0.00,weatherlink.com 1.10,2013-02-06 04:57:00,
2013-02-05 21:12:00,41.1,39.0,30.18,ESE,103,0.0,0.0,93,0.00,,,0.00,weatherlink.com 1.10,2013-02-06 05:12:00,
2013-02-05 21:27:00,40.1,38.0,30.18,ESE,103,0.0,0.0,92,0.00,,,0.00,weatherlink.com 1.10,2013-02-06 05:27:00,
2013-02-05 21:42:00,39.9,39.0,30.18,ESE,103,0.0,0.0,95,0.00,,,0.00,weatherlink.com 1.10,2013-02-06 05:42:00,
2013-02-05 21:57:00,40.0,39.0,30.18,ESE,103,0.0,0.0,94,0.00,,,0.00,weatherlink.com 1.10,2013-02-06 05:57:00,
2013-02-05 22:12:00,39.9,38.0,30.19,ESE,103,0.0,0.0,93,0.00,,,0.00,weatherlink.com 1.10,2013-02-06 06:12:00,
2013-02-05 22:27:00,40.0,38.0,30.19,ESE,103,0.0,0.0,93,0.00,,,0.00,weatherlink.com 1.10,2013-02-06 06:27:00,
2013-02-05 22:42:00,39.5,38.0,30.20,ESE,103,0.0,0.0,94,0.00,,,0.00,weatherlink.com 1.10,2013-02-06 06:42:00,
2013-02-05 22:57:00,39.1,38.0,30.19,ESE,103,0.0,0.0,94,0.00,,,0.00,weatherlink.com 1.10,2013-02-06 06:57:00,
2013-02-05 23:12:00,39.3,38.0,30.19,ESE,103,0.0,0.0,95,0.00,,,0.00,weatherlink.com 1.10,2013-02-06 07:12:00,
2013-02-05 23:27:00,38.6,37.0,30.19,ESE,103,0.0,0.0,94,0.00,,,0.00,weatherlink.com 1.10,2013-02-06 07:27:00,
2013-02-05 23:43:00,39.1,38.0,30.20,ESE,111,0.0,0.0,95,0.00,,,0.00,weatherlink.com 1.10,2013-02-06 07:43:00,
2013-02-05 23:57:00,39.0,37.0,30.20,West,280,0.0,0.0,93,0.00,,,0.00,weatherlink.com 1.10,2013-02-06 07:57:00,